Time;durP1;ratioP1;P1;durP2;ratioP2;P2;SDS_P1;SDS_P2;PMS_P1;PMS_P2;Temp;Humidity;BMP_temperature;BMP_pressure;BME280_temperature;BME280_humidity;BME280_pressure;Samples;Min_cycle;Max_cycle;Signal;HPM_P1;HPM_P2
2023/04/29 00:00:08;;;;;;;1.10;1.10;;;;;;;;;;4980972;28;59504;-67
2023/04/29 00:02:34;;;;;;;1.40;1.30;;;;;;;;;;4968747;28;59530;-66
2023/04/29 00:04:59;;;;;;;0.90;0.90;;;;;;;;;;4982093;28;59360;-64
2023/04/29 00:07:24;;;;;;;1.43;1.33;;;;;;;;;;4986010;28;60003;-66
2023/04/29 00:09:50;;;;;;;1.00;1.00;;;;;;;;;;4973120;28;59758;-66
2023/04/29 00:12:15;;;;;;;1.40;1.30;;;;;;;;;;4984769;28;59447;-66
2023/04/29 00:14:42;;;;;;;1.35;0.95;;;;;;;;;;4993372;28;59613;-67
2023/04/29 00:17:07;;;;;;;1.75;1.05;;;;;;;;;;4995837;28;59094;-66
2023/04/29 00:19:32;;;;;;;1.20;1.10;;;;;;;;;;4992774;28;59318;-67
2023/04/29 00:21:58;;;;;;;1.00;1.00;;;;;;;;;;4986223;28;59558;-67
2023/04/29 00:24:23;;;;;;;1.60;1.50;;;;;;;;;;4990562;28;58484;-67
2023/04/29 00:26:48;;;;;;;0.97;0.90;;;;;;;;;;4994357;28;59706;-66
2023/04/29 00:29:13;;;;;;;1.17;1.13;;;;;;;;;;4991009;28;59494;-64
2023/04/29 00:31:39;;;;;;;1.37;1.27;;;;;;;;;;4986680;28;59966;-67
2023/04/29 00:34:04;;;;;;;1.10;1.00;;;;;;;;;;4993066;28;59865;-67
2023/04/29 00:36:31;;;;;;;1.33;1.23;;;;;;;;;;4984645;28;59422;-66
2023/04/29 00:38:57;;;;;;;1.30;1.20;;;;;;;;;;4981401;28;58711;-67
2023/04/29 00:41:22;;;;;;;1.40;1.30;;;;;;;;;;4968705;28;59805;-66
2023/04/29 00:43:48;;;;;;;1.30;1.20;;;;;;;;;;4971256;28;60120;-63
2023/04/29 00:46:13;;;;;;;1.10;1.00;;;;;;;;;;4991690;28;61098;-66
2023/04/29 00:48:38;;;;;;;1.15;1.15;;;;;;;;;;4995335;28;59448;-67
2023/04/29 00:51:04;;;;;;;1.70;1.60;;;;;;;;;;4990023;28;59223;-66
2023/04/29 00:53:29;;;;;;;1.42;1.33;;;;;;;;;;4986435;28;60453;-67
2023/04/29 00:55:55;;;;;;;1.60;1.50;;;;;;;;;;4991240;28;59297;-64
2023/04/29 00:58:21;;;;;;;1.30;1.20;;;;;;;;;;4989028;28;59495;-66
2023/04/29 01:00:46;;;;;;;0.85;0.85;;;;;;;;;;4992051;28;60141;-67
2023/04/29 01:03:12;;;;;;;2.45;1.27;;;;;;;;;;4987939;28;59241;-66
2023/04/29 01:05:37;;;;;;;0.90;0.90;;;;;;;;;;4979528;28;59767;-66
2023/04/29 01:08:11;;;;;;;1.00;1.00;;;;;;;;;;4975744;28;59624;-66
2023/04/29 01:11:15;;;;;;;1.00;1.00;;;;;;;;;;4980679;28;59524;-67
2023/04/29 01:13:49;;;;;;;1.50;1.40;;;;;;;;;;4903681;28;59332;-67
2023/04/29 01:16:24;;;;;;;1.05;0.95;;;;;;;;;;4910609;28;60273;-66
2023/04/29 01:18:51;;;;;;;1.50;0.85;;;;;;;;;;4939282;28;59044;-66
2023/04/29 01:21:16;;;;;;;1.02;1.02;;;;;;;;;;4958757;28;59191;-67
2023/04/29 01:23:44;;;;;;;1.30;1.20;;;;;;;;;;4961462;28;59826;-67
2023/04/29 01:26:09;;;;;;;0.95;0.95;;;;;;;;;;4964297;28;59931;-66
2023/04/29 01:28:54;;;;;;;1.45;1.35;;;;;;;;;;4962565;28;59803;-67
2023/04/29 01:31:41;;;;;;;1.00;1.00;;;;;;;;;;4962523;28;59377;-66
2023/04/29 01:34:06;;;;;;;1.10;1.10;;;;;;;;;;4963152;28;59334;-67
2023/04/29 01:36:38;;;;;;;0.90;0.90;;;;;;;;;;4964581;28;59396;-67
2023/04/29 01:39:24;;;;;;;1.42;1.33;;;;;;;;;;4960657;28;59247;-66
2023/04/29 01:41:57;;;;;;;1.25;1.15;;;;;;;;;;4961648;28;59915;-67
2023/04/29 01:44:23;;;;;;;0.70;0.70;;;;;;;;;;4966978;28;59373;-67
2023/04/29 01:46:50;;;;;;;0.98;0.85;;;;;;;;;;4965296;28;59494;-66
2023/04/29 01:49:18;;;;;;;0.98;0.98;;;;;;;;;;4963343;28;59059;-66
2023/04/29 01:51:43;;;;;;;1.10;1.10;;;;;;;;;;4964640;28;59088;-66
2023/04/29 01:54:09;;;;;;;0.90;0.90;;;;;;;;;;4963899;28;59190;-66
2023/04/29 01:56:34;;;;;;;0.70;0.70;;;;;;;;;;4960535;28;59043;-67
2023/04/29 01:58:59;;;;;;;2.57;1.00;;;;;;;;;;4962213;28;58574;-66
2023/04/29 02:01:24;;;;;;;1.23;1.10;;;;;;;;;;4960852;28;59778;-67
2023/04/29 02:03:49;;;;;;;1.35;1.25;;;;;;;;;;4959291;28;59207;-67
2023/04/29 02:06:15;;;;;;;1.27;1.15;;;;;;;;;;4961935;28;59163;-66
2023/04/29 02:08:40;;;;;;;1.45;1.00;;;;;;;;;;4965064;28;59539;-64
2023/04/29 02:11:05;;;;;;;0.65;0.65;;;;;;;;;;4962249;28;59453;-66
2023/04/29 02:13:31;;;;;;;1.25;1.15;;;;;;;;;;4961999;28;59787;-66
2023/04/29 02:15:56;;;;;;;2.80;1.53;;;;;;;;;;4958573;28;59263;-67
2023/04/29 02:18:21;;;;;;;1.33;1.20;;;;;;;;;;4964616;28;58498;-67
2023/04/29 02:20:48;;;;;;;1.20;1.10;;;;;;;;;;4962143;28;59911;-67
2023/04/29 02:23:13;;;;;;;1.00;0.97;;;;;;;;;;4957699;28;59229;-65
2023/04/29 02:25:39;;;;;;;1.40;1.30;;;;;;;;;;4964286;28;59323;-65
2023/04/29 02:28:04;;;;;;;1.27;1.17;;;;;;;;;;4962811;28;59626;-65
2023/04/29 02:30:29;;;;;;;0.97;0.97;;;;;;;;;;4962152;28;59551;-67
2023/04/29 02:32:54;;;;;;;1.10;1.00;;;;;;;;;;4961311;28;59354;-66
2023/04/29 02:35:20;;;;;;;0.95;0.95;;;;;;;;;;4960533;28;59907;-66
2023/04/29 02:37:45;;;;;;;1.13;1.10;;;;;;;;;;4960893;28;59144;-66
2023/04/29 02:40:11;;;;;;;0.97;0.97;;;;;;;;;;4963487;28;58799;-67
2023/04/29 02:42:37;;;;;;;1.05;1.05;;;;;;;;;;4965065;28;59319;-65
2023/04/29 02:45:02;;;;;;;1.00;0.95;;;;;;;;;;4963223;28;59339;-66
2023/04/29 02:47:27;;;;;;;1.23;1.13;;;;;;;;;;4966193;28;60005;-66
2023/04/29 02:49:53;;;;;;;1.73;0.82;;;;;;;;;;4965326;28;59826;-65
2023/04/29 02:52:18;;;;;;;0.90;0.90;;;;;;;;;;4964248;28;59242;-66
2023/04/29 02:54:43;;;;;;;1.20;1.10;;;;;;;;;;4968369;28;59855;-65
2023/04/29 02:57:09;;;;;;;1.10;1.00;;;;;;;;;;4970435;28;58566;-67
2023/04/29 02:59:34;;;;;;;1.60;1.17;;;;;;;;;;4966448;28;59684;-66
2023/04/29 03:02:00;;;;;;;1.20;0.82;;;;;;;;;;4964740;28;59250;-67
2023/04/29 03:04:27;;;;;;;1.35;1.25;;;;;;;;;;4966035;28;59165;-67
2023/04/29 03:06:53;;;;;;;1.85;1.55;;;;;;;;;;4967397;28;59680;-67
2023/04/29 03:09:20;;;;;;;1.05;1.00;;;;;;;;;;4968277;28;59230;-67
2023/04/29 03:11:45;;;;;;;1.30;1.20;;;;;;;;;;4965574;28;59183;-67
2023/04/29 03:14:10;;;;;;;1.10;1.10;;;;;;;;;;4968982;28;59734;-67
2023/04/29 03:16:35;;;;;;;1.10;1.00;;;;;;;;;;4963249;28;59369;-66
2023/04/29 03:19:01;;;;;;;0.88;0.88;;;;;;;;;;4966774;28;59939;-66
2023/04/29 03:21:26;;;;;;;1.02;1.00;;;;;;;;;;4965961;28;59016;-67
2023/04/29 03:23:51;;;;;;;0.93;0.93;;;;;;;;;;4963763;28;59174;-66
2023/04/29 03:26:17;;;;;;;1.10;1.00;;;;;;;;;;4980874;28;59498;-67
2023/04/29 03:28:42;;;;;;;0.88;0.88;;;;;;;;;;4966461;28;59718;-67
2023/04/29 03:31:07;;;;;;;0.90;0.90;;;;;;;;;;4968298;28;59410;-67
2023/04/29 03:33:32;;;;;;;1.10;1.00;;;;;;;;;;4969668;28;59381;-67
2023/04/29 03:35:57;;;;;;;1.10;1.07;;;;;;;;;;4964178;28;59141;-66
2023/04/29 03:38:24;;;;;;;0.90;0.90;;;;;;;;;;4963563;28;59564;-67
2023/04/29 03:40:49;;;;;;;1.10;1.08;;;;;;;;;;4965480;28;59349;-66
2023/04/29 03:43:15;;;;;;;0.70;0.70;;;;;;;;;;4968034;28;59116;-66
2023/04/29 03:45:40;;;;;;;1.10;1.10;;;;;;;;;;4965577;28;60756;-66
2023/04/29 03:48:05;;;;;;;1.05;0.95;;;;;;;;;;4966004;28;59497;-66
2023/04/29 03:50:30;;;;;;;1.87;1.13;;;;;;;;;;4968191;28;59187;-66
2023/04/29 03:52:56;;;;;;;1.35;1.25;;;;;;;;;;4971215;28;59790;-66
2023/04/29 03:55:21;;;;;;;1.48;0.85;;;;;;;;;;4968330;28;59386;-67
2023/04/29 03:57:46;;;;;;;1.17;1.08;;;;;;;;;;4970239;28;59647;-67
2023/04/29 04:00:12;;;;;;;1.30;1.20;;;;;;;;;;4970051;28;59564;-63
2023/04/29 04:02:37;;;;;;;1.10;1.10;;;;;;;;;;4971028;28;59147;-66
2023/04/29 04:05:02;;;;;;;0.80;0.80;;;;;;;;;;4970296;28;59089;-66
2023/04/29 04:07:27;;;;;;;1.23;1.13;;;;;;;;;;4967492;28;59019;-66
2023/04/29 04:09:52;;;;;;;1.17;1.10;;;;;;;;;;4971215;28;59162;-66
2023/04/29 04:12:17;;;;;;;1.25;1.17;;;;;;;;;;4973297;28;59219;-67
2023/04/29 04:14:43;;;;;;;0.98;0.98;;;;;;;;;;4970760;28;59173;-65
2023/04/29 04:17:08;;;;;;;1.00;1.00;;;;;;;;;;4969241;28;59202;-66
2023/04/29 04:19:33;;;;;;;1.02;1.02;;;;;;;;;;4967938;28;59713;-66
2023/04/29 04:21:58;;;;;;;1.27;1.00;;;;;;;;;;4966728;28;59116;-66
2023/04/29 04:24:23;;;;;;;0.85;0.85;;;;;;;;;;4969950;28;59228;-66
2023/04/29 04:26:48;;;;;;;1.00;1.00;;;;;;;;;;4967982;28;59478;-66
2023/04/29 04:29:13;;;;;;;1.00;0.98;;;;;;;;;;4967771;28;59139;-66
2023/04/29 04:31:39;;;;;;;1.20;1.10;;;;;;;;;;4967437;28;59540;-65
2023/04/29 04:34:04;;;;;;;1.13;1.03;;;;;;;;;;4968452;28;59238;-63
2023/04/29 04:36:29;;;;;;;1.50;1.20;;;;;;;;;;4965083;28;59196;-66
2023/04/29 04:38:55;;;;;;;0.93;0.93;;;;;;;;;;4966572;28;59697;-66
2023/04/29 04:41:20;;;;;;;1.30;1.20;;;;;;;;;;4967906;28;59213;-67
2023/04/29 04:43:45;;;;;;;1.40;1.30;;;;;;;;;;4967962;28;59374;-66
2023/04/29 04:46:11;;;;;;;1.48;1.38;;;;;;;;;;4968104;28;59396;-67
2023/04/29 04:48:36;;;;;;;1.30;1.20;;;;;;;;;;4969052;28;59533;-67
2023/04/29 04:51:11;;;;;;;1.05;1.05;;;;;;;;;;4966475;28;59427;-67
2023/04/29 04:53:36;;;;;;;1.25;1.15;;;;;;;;;;4965889;28;59318;-67
2023/04/29 04:56:01;;;;;;;1.05;1.05;;;;;;;;;;4965397;28;59817;-66
2023/04/29 04:58:27;;;;;;;1.30;1.20;;;;;;;;;;4967869;28;59579;-67
2023/04/29 05:00:52;;;;;;;0.90;0.90;;;;;;;;;;4964312;28;59589;-67
2023/04/29 05:03:17;;;;;;;1.03;1.00;;;;;;;;;;4967790;28;59638;-66
2023/04/29 05:05:42;;;;;;;0.90;0.90;;;;;;;;;;4965075;28;59324;-66
2023/04/29 05:08:07;;;;;;;1.23;1.00;;;;;;;;;;4967157;28;59114;-67
2023/04/29 05:10:35;;;;;;;0.73;0.73;;;;;;;;;;4968863;28;59234;-67
2023/04/29 05:13:00;;;;;;;0.97;0.97;;;;;;;;;;4964912;28;59386;-63
2023/04/29 05:15:26;;;;;;;1.17;1.07;;;;;;;;;;4967767;28;59853;-67
2023/04/29 05:17:51;;;;;;;0.90;0.90;;;;;;;;;;4964841;28;60747;-65
2023/04/29 05:20:16;;;;;;;1.20;1.10;;;;;;;;;;4966193;28;59344;-63
2023/04/29 05:22:41;;;;;;;1.10;1.00;;;;;;;;;;4966581;28;59276;-66
2023/04/29 05:25:07;;;;;;;1.15;1.10;;;;;;;;;;4968406;28;59785;-67
2023/04/29 05:27:32;;;;;;;1.03;1.03;;;;;;;;;;4969687;28;59641;-67
2023/04/29 05:29:57;;;;;;;1.10;1.10;;;;;;;;;;4967873;28;59557;-67
2023/04/29 05:32:22;;;;;;;1.10;0.93;;;;;;;;;;4965737;28;59515;-67
2023/04/29 05:34:47;;;;;;;1.45;1.00;;;;;;;;;;4969456;28;59205;-66
2023/04/29 05:37:13;;;;;;;0.80;0.80;;;;;;;;;;4969345;28;59500;-66
2023/04/29 05:39:38;;;;;;;0.80;0.80;;;;;;;;;;4965744;28;59143;-67
2023/04/29 05:42:03;;;;;;;0.70;0.70;;;;;;;;;;4968252;28;59115;-67
2023/04/29 05:44:28;;;;;;;1.40;0.82;;;;;;;;;;4963625;28;59188;-67
2023/04/29 05:46:53;;;;;;;1.02;1.02;;;;;;;;;;4971758;28;59002;-67
2023/04/29 05:49:19;;;;;;;1.35;1.25;;;;;;;;;;4967230;28;60031;-65
2023/04/29 05:51:44;;;;;;;1.20;1.10;;;;;;;;;;4967123;28;59378;-67
2023/04/29 05:54:09;;;;;;;0.87;0.87;;;;;;;;;;4966187;28;59439;-66
2023/04/29 05:56:34;;;;;;;1.10;1.00;;;;;;;;;;4967980;28;59825;-66
2023/04/29 05:58:59;;;;;;;1.00;0.80;;;;;;;;;;4966669;28;59195;-66
2023/04/29 06:01:25;;;;;;;1.10;1.00;;;;;;;;;;4968053;28;58806;-66
2023/04/29 06:03:50;;;;;;;0.75;0.75;;;;;;;;;;4967856;28;59830;-64
2023/04/29 06:06:15;;;;;;;1.27;1.07;;;;;;;;;;4966189;28;59374;-66
2023/04/29 06:08:41;;;;;;;1.90;1.60;;;;;;;;;;4968349;28;59775;-67
2023/04/29 06:11:06;;;;;;;2.33;0.98;;;;;;;;;;4967624;28;59063;-67
2023/04/29 06:13:31;;;;;;;0.82;0.82;;;;;;;;;;4967448;28;59009;-67
2023/04/29 06:15:56;;;;;;;0.70;0.70;;;;;;;;;;4966156;28;59324;-62
2023/04/29 06:18:22;;;;;;;3.47;1.97;;;;;;;;;;4968489;28;59292;-66
2023/04/29 06:20:47;;;;;;;2.03;1.00;;;;;;;;;;4964441;28;59182;-66
2023/04/29 06:23:12;;;;;;;1.17;1.00;;;;;;;;;;4969325;28;59649;-64
2023/04/29 06:25:37;;;;;;;1.67;1.27;;;;;;;;;;4967654;28;59455;-66
2023/04/29 06:28:03;;;;;;;3.33;2.10;;;;;;;;;;4966885;28;61043;-67
2023/04/29 06:30:28;;;;;;;1.20;1.05;;;;;;;;;;4974931;28;59698;-67
2023/04/29 06:32:53;;;;;;;0.90;0.90;;;;;;;;;;4975719;28;59537;-66
2023/04/29 06:35:19;;;;;;;3.25;0.90;;;;;;;;;;4970845;28;59689;-67
2023/04/29 06:37:44;;;;;;;3.13;1.03;;;;;;;;;;4985425;28;59840;-66
2023/04/29 06:40:09;;;;;;;4.37;1.10;;;;;;;;;;4967629;28;59493;-66
2023/04/29 06:42:35;;;;;;;0.90;0.90;;;;;;;;;;4967440;28;60984;-67
2023/04/29 06:45:01;;;;;;;1.20;0.82;;;;;;;;;;4972251;28;59459;-67
2023/04/29 06:47:26;;;;;;;2.05;0.70;;;;;;;;;;4969528;28;59424;-67
2023/04/29 06:49:52;;;;;;;1.20;1.10;;;;;;;;;;4968876;28;59184;-66
2023/04/29 06:52:17;;;;;;;1.67;0.90;;;;;;;;;;4973104;28;59171;-66
2023/04/29 06:54:43;;;;;;;1.30;1.00;;;;;;;;;;4975610;28;59815;-67
2023/04/29 06:57:08;;;;;;;2.73;1.90;;;;;;;;;;4986336;28;59556;-67
2023/04/29 06:59:33;;;;;;;2.15;1.10;;;;;;;;;;4992675;28;59221;-66
2023/04/29 07:01:58;;;;;;;2.55;0.70;;;;;;;;;;4992535;28;60274;-67
2023/04/29 07:04:23;;;;;;;1.00;0.90;;;;;;;;;;4992059;28;59396;-66
2023/04/29 07:06:49;;;;;;;3.03;1.40;;;;;;;;;;4987792;28;59316;-67
2023/04/29 07:09:15;;;;;;;4.15;2.60;;;;;;;;;;4989369;28;59292;-66
2023/04/29 07:11:40;;;;;;;6.00;2.97;;;;;;;;;;4988751;28;59236;-67
2023/04/29 07:14:06;;;;;;;3.53;3.20;;;;;;;;;;4988361;28;59133;-67
2023/04/29 07:16:31;;;;;;;2.63;2.42;;;;;;;;;;4989044;28;59624;-66
2023/04/29 07:18:57;;;;;;;3.53;2.50;;;;;;;;;;4985596;28;59250;-66
2023/04/29 07:21:23;;;;;;;4.68;3.05;;;;;;;;;;4991568;28;59563;-67
2023/04/29 07:23:48;;;;;;;4.57;2.57;;;;;;;;;;4990928;28;60976;-66
2023/04/29 07:26:14;;;;;;;4.87;2.90;;;;;;;;;;4992507;28;59695;-67
2023/04/29 07:28:41;;;;;;;3.88;3.08;;;;;;;;;;4994761;28;59874;-67
2023/04/29 07:31:06;;;;;;;1.95;1.75;;;;;;;;;;4990951;28;59371;-67
2023/04/29 07:33:31;;;;;;;4.88;1.85;;;;;;;;;;4994321;28;59188;-67
2023/04/29 07:35:57;;;;;;;2.13;1.57;;;;;;;;;;4994296;28;59487;-67
2023/04/29 07:38:22;;;;;;;3.20;2.33;;;;;;;;;;4993710;28;59485;-66
2023/04/29 07:40:47;;;;;;;3.47;2.00;;;;;;;;;;4987905;28;59327;-66
2023/04/29 07:43:12;;;;;;;1.88;1.77;;;;;;;;;;4990173;28;59341;-62
2023/04/29 07:45:38;;;;;;;2.60;1.90;;;;;;;;;;4984982;28;59430;-66
2023/04/29 07:48:04;;;;;;;1.70;1.60;;;;;;;;;;4986076;28;59142;-67
2023/04/29 07:50:29;;;;;;;2.55;1.55;;;;;;;;;;4986469;28;59622;-66
2023/04/29 07:52:56;;;;;;;2.27;2.03;;;;;;;;;;4966189;28;59627;-67
2023/04/29 07:55:21;;;;;;;2.13;1.92;;;;;;;;;;4989736;28;59154;-66
2023/04/29 07:57:46;;;;;;;1.92;1.60;;;;;;;;;;4986547;28;59129;-67
2023/04/29 08:00:12;;;;;;;5.40;2.00;;;;;;;;;;4988944;28;59249;-67
2023/04/29 08:02:37;;;;;;;7.15;2.55;;;;;;;;;;4989713;28;59701;-65
2023/04/29 08:05:02;;;;;;;2.60;1.10;;;;;;;;;;4989559;28;59602;-67
2023/04/29 08:07:28;;;;;;;3.17;2.20;;;;;;;;;;4990366;28;59615;-67
2023/04/29 08:09:53;;;;;;;1.33;1.23;;;;;;;;;;4989415;28;59511;-66
2023/04/29 08:12:18;;;;;;;2.90;1.10;;;;;;;;;;4989172;28;59215;-67
2023/04/29 08:14:43;;;;;;;3.33;1.13;;;;;;;;;;4988964;28;59381;-67
2023/04/29 08:17:08;;;;;;;2.13;1.47;;;;;;;;;;4987786;28;59447;-67
2023/04/29 08:19:33;;;;;;;1.77;1.27;;;;;;;;;;4972752;28;60026;-67
2023/04/29 08:21:59;;;;;;;1.90;1.27;;;;;;;;;;4987711;28;59349;-66
2023/04/29 08:24:25;;;;;;;0.88;0.75;;;;;;;;;;4983543;28;58889;-67
2023/04/29 08:26:51;;;;;;;1.20;1.10;;;;;;;;;;4987938;28;60193;-67
2023/04/29 08:29:16;;;;;;;2.35;1.00;;;;;;;;;;4985362;28;59518;-67
2023/04/29 08:31:41;;;;;;;1.85;1.38;;;;;;;;;;4987621;28;59269;-66
2023/04/29 08:34:06;;;;;;;1.23;0.90;;;;;;;;;;4985665;28;59234;-67
2023/04/29 08:36:32;;;;;;;1.02;1.02;;;;;;;;;;4987799;28;59555;-65
2023/04/29 08:38:57;;;;;;;2.90;1.70;;;;;;;;;;4987457;28;59630;-67
2023/04/29 08:41:24;;;;;;;2.73;1.20;;;;;;;;;;4985591;28;59169;-67
2023/04/29 08:43:49;;;;;;;1.17;1.08;;;;;;;;;;4986637;28;59154;-65
2023/04/29 08:46:15;;;;;;;2.40;1.80;;;;;;;;;;4987733;28;59479;-66
2023/04/29 08:48:40;;;;;;;2.15;1.38;;;;;;;;;;4982449;28;59275;-67
2023/04/29 08:51:05;;;;;;;1.30;1.20;;;;;;;;;;4989983;28;59492;-66
2023/04/29 08:53:31;;;;;;;1.83;1.13;;;;;;;;;;4987534;28;59277;-67
2023/04/29 08:56:00;;;;;;;2.45;0.98;;;;;;;;;;4986706;28;59200;-67
2023/04/29 08:58:27;;;;;;;1.55;1.20;;;;;;;;;;4985840;28;59094;-65
2023/04/29 09:00:52;;;;;;;1.50;1.40;;;;;;;;;;4985084;28;59137;-66
2023/04/29 09:03:25;;;;;;;1.25;1.05;;;;;;;;;;4988317;28;59149;-67
2023/04/29 09:05:55;;;;;;;2.38;1.15;;;;;;;;;;4986701;28;59090;-66
2023/04/29 09:08:21;;;;;;;1.20;1.10;;;;;;;;;;4988326;28;58658;-66
2023/04/29 09:10:46;;;;;;;1.17;0.68;;;;;;;;;;4986965;28;59153;-67
2023/04/29 09:13:27;;;;;;;0.90;0.80;;;;;;;;;;4979977;28;59126;-66
2023/04/29 09:15:53;;;;;;;1.75;1.38;;;;;;;;;;4984372;28;59376;-67
2023/04/29 09:18:37;;;;;;;1.45;1.35;;;;;;;;;;4990447;28;59601;-66
2023/04/29 09:21:12;;;;;;;0.73;0.73;;;;;;;;;;4982672;28;58587;-67
2023/04/29 09:23:37;;;;;;;1.77;0.88;;;;;;;;;;4986276;28;59077;-66
2023/04/29 09:26:02;;;;;;;2.33;0.90;;;;;;;;;;4988225;28;59448;-66
2023/04/29 09:28:28;;;;;;;2.77;0.70;;;;;;;;;;4984129;28;59224;-66
2023/04/29 09:30:53;;;;;;;0.88;0.88;;;;;;;;;;4980129;28;59414;-67
2023/04/29 09:33:18;;;;;;;1.17;0.85;;;;;;;;;;4970496;28;59206;-67
2023/04/29 09:35:43;;;;;;;1.33;1.20;;;;;;;;;;4984058;28;59155;-66
2023/04/29 09:38:10;;;;;;;2.10;1.60;;;;;;;;;;4987538;28;59848;-67
2023/04/29 09:40:35;;;;;;;1.52;0.95;;;;;;;;;;4985134;28;59535;-66
2023/04/29 09:43:01;;;;;;;0.93;0.75;;;;;;;;;;4987918;28;59094;-67
2023/04/29 09:45:36;;;;;;;2.40;0.70;;;;;;;;;;4983534;28;59481;-66
2023/04/29 09:48:05;;;;;;;0.95;0.90;;;;;;;;;;4985918;28;58454;-67
2023/04/29 09:50:31;;;;;;;2.42;0.95;;;;;;;;;;4969517;28;59296;-67
2023/04/29 09:52:56;;;;;;;0.68;0.68;;;;;;;;;;4964698;28;59850;-67
2023/04/29 09:55:21;;;;;;;1.10;0.80;;;;;;;;;;4969673;28;59217;-66
2023/04/29 09:57:46;;;;;;;2.37;0.93;;;;;;;;;;4987976;28;59440;-67
2023/04/29 10:00:13;;;;;;;1.23;1.10;;;;;;;;;;4985866;28;59409;-66
2023/04/29 10:02:40;;;;;;;1.10;0.75;;;;;;;;;;4983233;28;59097;-67
2023/04/29 10:05:06;;;;;;;0.90;0.90;;;;;;;;;;4987546;28;59485;-67
2023/04/29 10:07:31;;;;;;;1.17;0.70;;;;;;;;;;4983744;28;59212;-65
2023/04/29 10:09:57;;;;;;;0.98;0.82;;;;;;;;;;4984385;28;59422;-63
2023/04/29 10:12:23;;;;;;;0.80;0.80;;;;;;;;;;4983555;28;59719;-67
2023/04/29 10:14:49;;;;;;;1.85;0.90;;;;;;;;;;4985080;28;59153;-67
2023/04/29 10:17:19;;;;;;;1.25;1.15;;;;;;;;;;4971928;28;59611;-67
2023/04/29 10:19:46;;;;;;;0.60;0.60;;;;;;;;;;4974800;28;59510;-66
2023/04/29 10:22:15;;;;;;;1.23;0.80;;;;;;;;;;4981389;28;59748;-70
2023/04/29 10:24:41;;;;;;;0.98;0.98;;;;;;;;;;4991917;28;59602;-72
2023/04/29 10:27:11;;;;;;;0.73;0.63;;;;;;;;;;4985555;28;59916;-66
2023/04/29 10:29:37;;;;;;;0.93;0.80;;;;;;;;;;4985366;28;59432;-66
2023/04/29 10:32:02;;;;;;;2.58;0.98;;;;;;;;;;4984739;28;59921;-64
2023/04/29 10:34:28;;;;;;;2.35;0.98;;;;;;;;;;4984172;28;60587;-68
2023/04/29 10:36:53;;;;;;;1.25;1.13;;;;;;;;;;4984590;28;59293;-67
2023/04/29 10:39:22;;;;;;;1.10;0.87;;;;;;;;;;4985896;28;60225;-68
2023/04/29 10:41:49;;;;;;;1.92;0.90;;;;;;;;;;4983254;28;59643;-67
2023/04/29 10:44:14;;;;;;;0.70;0.70;;;;;;;;;;4986927;28;59654;-73
2023/04/29 10:46:40;;;;;;;0.85;0.85;;;;;;;;;;4985310;22;59218;-67
2023/04/29 10:49:05;;;;;;;3.55;0.85;;;;;;;;;;4959000;28;58943;-66
2023/04/29 10:51:41;;;;;;;1.40;1.10;;;;;;;;;;4974492;28;59794;-68
2023/04/29 10:54:11;;;;;;;0.65;0.65;;;;;;;;;;4977532;28;59226;-67
2023/04/29 10:56:41;;;;;;;1.73;0.85;;;;;;;;;;4974169;28;59344;-67
2023/04/29 10:59:29;;;;;;;0.80;0.80;;;;;;;;;;4981546;28;59109;-67
2023/04/29 11:01:55;;;;;;;1.45;0.50;;;;;;;;;;4965922;28;59576;-67
2023/04/29 11:04:21;;;;;;;0.82;0.75;;;;;;;;;;4980694;28;59415;-68
2023/04/29 11:06:52;;;;;;;1.80;0.68;;;;;;;;;;4970725;28;59787;-68
2023/04/29 11:09:18;;;;;;;0.93;0.80;;;;;;;;;;4980025;28;59232;-66
2023/04/29 11:11:48;;;;;;;2.25;1.25;;;;;;;;;;4978438;28;59937;-66
2023/04/29 11:14:14;;;;;;;0.82;0.60;;;;;;;;;;4980913;28;59532;-63
2023/04/29 11:17:08;;;;;;;1.17;1.13;;;;;;;;;;4986123;28;58993;-65
2023/04/29 11:19:35;;;;;;;0.80;0.55;;;;;;;;;;4961179;28;60046;-67
2023/04/29 11:22:06;;;;;;;1.27;1.17;;;;;;;;;;4984219;28;59161;-63
2023/04/29 11:24:33;;;;;;;3.55;0.93;;;;;;;;;;4985414;28;59510;-66
2023/04/29 11:27:03;;;;;;;0.70;0.70;;;;;;;;;;4980438;28;59436;-69
2023/04/29 11:29:29;;;;;;;1.20;0.63;;;;;;;;;;4978022;28;59333;-66
2023/04/29 11:31:58;;;;;;;1.77;1.17;;;;;;;;;;4978781;28;59385;-65
2023/04/29 11:34:23;;;;;;;1.00;0.90;;;;;;;;;;4976916;28;59348;-67
2023/04/29 11:36:50;;;;;;;1.95;0.63;;;;;;;;;;4985590;28;59246;-68
2023/04/29 11:39:15;;;;;;;1.95;1.00;;;;;;;;;;4984604;28;59782;-67
2023/04/29 11:41:41;;;;;;;0.95;0.90;;;;;;;;;;4983798;28;58568;-67
2023/04/29 11:44:08;;;;;;;3.55;0.90;;;;;;;;;;4981991;28;59211;-65
2023/04/29 11:46:34;;;;;;;3.63;1.10;;;;;;;;;;4981029;28;59672;-67
2023/04/29 11:49:00;;;;;;;4.53;1.70;;;;;;;;;;4984477;28;59659;-67
2023/04/29 11:51:26;;;;;;;1.63;1.20;;;;;;;;;;4986948;28;59263;-68
2023/04/29 11:53:52;;;;;;;1.17;0.70;;;;;;;;;;4985865;28;59623;-67
2023/04/29 11:56:19;;;;;;;1.07;0.80;;;;;;;;;;4979260;28;59342;-68
2023/04/29 11:58:45;;;;;;;1.33;1.17;;;;;;;;;;4986972;28;59188;-68
2023/04/29 12:01:10;;;;;;;1.60;0.90;;;;;;;;;;4987596;28;59610;-67
2023/04/29 12:03:35;;;;;;;2.73;1.07;;;;;;;;;;4987895;28;59446;-66
2023/04/29 12:06:01;;;;;;;3.77;1.57;;;;;;;;;;4981903;28;60196;-67
2023/04/29 12:08:28;;;;;;;2.55;1.75;;;;;;;;;;4985912;28;59156;-67
2023/04/29 12:10:54;;;;;;;2.63;1.17;;;;;;;;;;4988677;28;59239;-68
2023/04/29 12:13:21;;;;;;;0.90;0.70;;;;;;;;;;4982475;28;59379;-67
2023/04/29 12:15:47;;;;;;;3.28;0.95;;;;;;;;;;4988186;28;59474;-73
2023/04/29 12:18:13;;;;;;;5.43;1.05;;;;;;;;;;5015971;22;59557;-66
2023/04/29 12:20:38;;;;;;;2.83;1.30;;;;;;;;;;4977807;28;59293;-75
2023/04/29 12:23:13;;;;;;;0.60;0.60;;;;;;;;;;4986460;28;59447;-75
2023/04/29 12:25:40;;;;;;;2.55;0.80;;;;;;;;;;4989587;28;59859;-72
2023/04/29 12:28:11;;;;;;;6.15;1.08;;;;;;;;;;4988876;28;59483;-65
2023/04/29 12:30:37;;;;;;;1.98;0.80;;;;;;;;;;4988579;28;59398;-65
2023/04/29 12:33:02;;;;;;;5.20;0.67;;;;;;;;;;4988135;28;59483;-71
2023/04/29 12:35:27;;;;;;;3.30;0.87;;;;;;;;;;4997135;28;59116;-69
2023/04/29 12:37:52;;;;;;;2.17;0.97;;;;;;;;;;4992856;28;59073;-67
2023/04/29 12:40:19;;;;;;;1.25;1.15;;;;;;;;;;4996374;28;59260;-74
2023/04/29 12:42:44;;;;;;;1.25;0.85;;;;;;;;;;4997209;28;59303;-72
2023/04/29 12:45:25;;;;;;;0.70;0.70;;;;;;;;;;4998950;28;59107;-73
2023/04/29 12:47:50;;;;;;;0.98;0.93;;;;;;;;;;4988762;28;59408;-68
2023/04/29 12:50:16;;;;;;;2.83;0.98;;;;;;;;;;4985474;28;59288;-66
2023/04/29 12:52:41;;;;;;;1.03;1.00;;;;;;;;;;4977698;28;59882;-68
2023/04/29 12:55:06;;;;;;;2.08;0.77;;;;;;;;;;4975730;28;59334;-68
2023/04/29 12:57:31;;;;;;;0.80;0.80;;;;;;;;;;4966759;28;59692;-66
2023/04/29 12:59:56;;;;;;;0.60;0.60;;;;;;;;;;4975325;28;59045;-68
2023/04/29 13:02:21;;;;;;;1.92;0.50;;;;;;;;;;4975266;28;59163;-67
2023/04/29 13:04:47;;;;;;;0.65;0.63;;;;;;;;;;4975507;28;59415;-68
2023/04/29 13:07:12;;;;;;;0.50;0.50;;;;;;;;;;4974356;28;58542;-68
2023/04/29 13:09:40;;;;;;;30.60;2.73;;;;;;;;;;4969955;28;59373;-67
2023/04/29 13:12:07;;;;;;;0.70;0.70;;;;;;;;;;4981423;28;59195;-67
2023/04/29 13:14:32;;;;;;;0.65;0.65;;;;;;;;;;4972008;28;59392;-67
2023/04/29 13:16:57;;;;;;;2.47;1.03;;;;;;;;;;4978845;28;59192;-67
2023/04/29 13:19:22;;;;;;;2.40;0.60;;;;;;;;;;4946995;28;59662;-68
2023/04/29 13:21:47;;;;;;;1.88;0.50;;;;;;;;;;4977726;28;59182;-68
2023/04/29 13:24:13;;;;;;;0.60;0.60;;;;;;;;;;4987510;28;60876;-68
2023/04/29 13:26:38;;;;;;;1.52;0.95;;;;;;;;;;4982817;28;59239;-68
2023/04/29 13:29:03;;;;;;;1.10;0.67;;;;;;;;;;4977531;28;59196;-67
2023/04/29 13:31:28;;;;;;;2.23;0.60;;;;;;;;;;4977138;28;59388;-68
2023/04/29 13:33:54;;;;;;;0.90;0.60;;;;;;;;;;4980115;28;59166;-67
2023/04/29 13:36:19;;;;;;;1.27;0.73;;;;;;;;;;4978718;28;59142;-67
2023/04/29 13:38:44;;;;;;;1.33;0.60;;;;;;;;;;4983056;28;59106;-68
2023/04/29 13:41:10;;;;;;;0.97;0.87;;;;;;;;;;4974034;28;59245;-67
2023/04/29 13:43:35;;;;;;;4.50;0.90;;;;;;;;;;4981500;28;59604;-67
2023/04/29 13:46:00;;;;;;;0.50;0.50;;;;;;;;;;4976134;28;59532;-68
2023/04/29 13:48:25;;;;;;;0.50;0.50;;;;;;;;;;4980299;28;59709;-67
2023/04/29 13:50:50;;;;;;;0.82;0.70;;;;;;;;;;4974427;28;59151;-67
2023/04/29 13:53:16;;;;;;;2.03;0.40;;;;;;;;;;4982303;28;59482;-67
2023/04/29 13:55:41;;;;;;;0.60;0.40;;;;;;;;;;4982578;28;59686;-68
2023/04/29 13:58:07;;;;;;;1.37;1.03;;;;;;;;;;4980853;28;59105;-67
2023/04/29 14:00:32;;;;;;;0.82;0.55;;;;;;;;;;4981073;28;59297;-67
2023/04/29 14:02:57;;;;;;;0.50;0.50;;;;;;;;;;4973450;28;59720;-65
2023/04/29 14:05:22;;;;;;;1.57;1.47;;;;;;;;;;4979632;28;59333;-67
2023/04/29 14:07:47;;;;;;;0.43;0.40;;;;;;;;;;4982198;28;59169;-67
2023/04/29 14:10:13;;;;;;;0.38;0.38;;;;;;;;;;4978087;28;60663;-67
2023/04/29 14:12:38;;;;;;;1.53;0.60;;;;;;;;;;4970262;28;59810;-68
2023/04/29 14:15:03;;;;;;;0.40;0.40;;;;;;;;;;4977073;28;59159;-65
2023/04/29 14:17:28;;;;;;;0.60;0.60;;;;;;;;;;4974677;28;58732;-67
2023/04/29 14:19:53;;;;;;;0.70;0.67;;;;;;;;;;4978360;28;59328;-68
2023/04/29 14:22:20;;;;;;;0.50;0.50;;;;;;;;;;4969814;28;59869;-67
2023/04/29 14:24:45;;;;;;;1.83;0.40;;;;;;;;;;4970526;28;59591;-66
2023/04/29 14:27:10;;;;;;;0.55;0.38;;;;;;;;;;4978996;28;59638;-67
2023/04/29 14:29:36;;;;;;;1.75;0.75;;;;;;;;;;4971689;28;59546;-67
2023/04/29 14:32:01;;;;;;;0.40;0.40;;;;;;;;;;4965560;28;59849;-66
2023/04/29 14:34:26;;;;;;;0.63;0.40;;;;;;;;;;4970555;28;59553;-67
2023/04/29 14:36:51;;;;;;;0.30;0.20;;;;;;;;;;4973943;28;59164;-67